Time;durP1;ratioP1;P1;durP2;ratioP2;P2;SDS_P1;SDS_P2;PMS_P1;PMS_P2;Temp;Humidity;BMP_temperature;BMP_pressure;BME280_temperature;BME280_humidity;BME280_pressure;Samples;Min_cycle;Max_cycle;Signal;HPM_P1;HPM_P2
2022/08/19 00:00:10;;;;;;;8.13;5.57;;;;;;;27.27;44.19;98713.59;4499470;31;36030;-72
2022/08/19 00:02:38;;;;;;;10.23;5.87;;;;;;;27.16;44.51;98713.66;4500278;31;34320;-72
2022/08/19 00:05:18;;;;;;;10.07;5.37;;;;;;;27.33;43.89;98721.03;4500679;31;34372;-73
2022/08/19 00:07:47;;;;;;;11.65;5.87;;;;;;;27.57;43.52;98722.50;4486789;31;33221;-73
2022/08/19 00:10:15;;;;;;;7.28;5.47;;;;;;;27.83;43.09;98719.22;4498112;31;35041;-73
2022/08/19 00:12:43;;;;;;;8.07;5.30;;;;;;;27.55;43.54;98717.28;4498858;31;34390;-72
2022/08/19 00:15:16;;;;;;;9.70;5.70;;;;;;;27.21;44.31;98711.41;4500513;31;33567;-72
2022/08/19 00:17:45;;;;;;;8.23;5.55;;;;;;;27.79;43.09;98724.84;4500305;31;35005;-72
2022/08/19 00:20:16;;;;;;;8.90;6.07;;;;;;;27.39;44.07;98731.19;4498688;31;34882;-73
2022/08/19 00:22:45;;;;;;;12.63;5.75;;;;;;;27.72;43.30;98723.75;4499072;31;34984;-73
2022/08/19 00:25:14;;;;;;;9.35;6.07;;;;;;;27.46;43.86;98709.22;4498696;31;34239;-73
2022/08/19 00:27:42;;;;;;;11.48;5.78;;;;;;;27.35;44.17;98716.41;4500112;31;34614;-73
2022/08/19 00:30:11;;;;;;;9.43;6.22;;;;;;;27.19;44.59;98714.22;4499540;31;35040;-76
2022/08/19 00:32:39;;;;;;;9.30;5.70;;;;;;;27.49;44.09;98719.66;4486968;31;32850;-73
2022/08/19 00:35:09;;;;;;;10.45;5.80;;;;;;;27.17;44.86;98705.50;4500421;31;34309;-73
2022/08/19 00:37:37;;;;;;;8.70;5.72;;;;;;;27.00;44.97;98719.53;4498877;31;34640;-72
2022/08/19 00:40:06;;;;;;;9.10;5.57;;;;;;;27.01;44.95;98716.72;4498285;31;35755;-73
2022/08/19 00:42:34;;;;;;;9.02;6.07;;;;;;;27.21;44.42;98712.28;4499949;31;35298;-73
2022/08/19 00:45:09;;;;;;;9.95;6.45;;;;;;;27.14;44.83;98704.94;4497767;31;34352;-73
2022/08/19 00:47:37;;;;;;;11.13;6.00;;;;;;;27.02;44.95;98704.22;4499875;31;33891;-73
2022/08/19 00:50:08;;;;;;;8.20;5.72;;;;;;;26.95;45.41;98705.72;4498273;31;35022;-86
2022/08/19 00:52:41;;;;;;;11.20;5.87;;;;;;;26.74;45.77;98704.00;4499935;31;33579;-73
2022/08/19 00:55:11;;;;;;;9.40;6.00;;;;;;;26.92;45.26;98714.03;4498082;31;32173;-74
2022/08/19 00:57:44;;;;;;;8.68;5.53;;;;;;;27.23;44.48;98717.47;4499707;31;33049;-74
2022/08/19 01:00:15;;;;;;;10.07;5.32;;;;;;;27.43;44.08;98711.22;4498198;31;35035;-74
2022/08/19 01:02:43;;;;;;;14.00;6.10;;;;;;;27.14;44.58;98710.28;4499832;31;34632;-72
2022/08/19 01:05:14;;;;;;;9.32;6.00;;;;;;;27.20;44.20;98704.41;4499112;31;33546;-84
2022/08/19 01:07:43;;;;;;;7.12;5.40;;;;;;;27.34;44.19;98703.19;4500797;31;33951;-73
2022/08/19 01:10:16;;;;;;;11.15;5.45;;;;;;;27.32;43.98;98703.31;4496223;31;35046;-84
2022/08/19 01:12:45;;;;;;;8.07;5.45;;;;;;;27.50;43.53;98700.81;4483684;32;34642;-77
2022/08/19 01:15:20;;;;;;;8.35;6.03;;;;;;;27.34;43.86;98698.69;4489479;31;33445;-85
2022/08/19 01:17:48;;;;;;;8.65;5.53;;;;;;;27.62;43.26;98699.69;4497311;31;33865;-73
2022/08/19 01:20:20;;;;;;;9.02;5.43;;;;;;;27.13;44.20;98701.44;4489445;31;35866;-76
2022/08/19 01:22:54;;;;;;;10.48;6.15;;;;;;;27.45;43.49;98702.22;4501168;31;34328;-73
2022/08/19 01:25:26;;;;;;;10.63;5.62;;;;;;;27.48;43.38;98696.56;4501925;31;33886;-74
2022/08/19 01:27:56;;;;;;;10.30;5.97;;;;;;;27.66;42.99;98694.06;4501557;31;34793;-73
2022/08/19 01:30:37;;;;;;;8.23;5.53;;;;;;;27.60;43.11;98690.09;4501672;31;35949;-79
2022/08/19 01:33:11;;;;;;;7.95;5.43;;;;;;;27.60;42.89;98690.09;4501442;31;35141;-85
2022/08/19 01:35:40;;;;;;;10.60;5.05;;;;;;;27.58;43.13;98697.41;4500745;31;33456;-73
2022/08/19 01:38:20;;;;;;;10.07;5.45;;;;;;;27.43;43.51;98684.47;4488494;31;33890;-73
2022/08/19 01:40:48;;;;;;;8.10;5.60;;;;;;;27.43;43.36;98678.28;4498952;31;33862;-83
2022/08/19 01:43:16;;;;;;;7.05;5.22;;;;;;;27.39;43.42;98672.38;4502524;31;34425;-72
2022/08/19 01:45:43;;;;;;;8.48;5.12;;;;;;;27.54;42.93;98669.28;4501602;31;34350;-73
2022/08/19 01:48:13;;;;;;;9.88;5.53;;;;;;;27.87;42.24;98669.81;4501460;31;33849;-75
2022/08/19 01:50:41;;;;;;;10.05;5.75;;;;;;;27.23;43.55;98669.34;4486674;31;34045;-73
2022/08/19 01:53:10;;;;;;;7.85;5.00;;;;;;;27.33;43.57;98662.22;4501454;31;34532;-73
2022/08/19 01:55:41;;;;;;;9.55;5.72;;;;;;;27.36;43.51;98659.28;4499877;31;33530;-72
2022/08/19 01:58:16;;;;;;;11.77;5.68;;;;;;;27.28;43.73;98648.44;4500075;31;33009;-72
2022/08/19 02:00:45;;;;;;;7.90;5.57;;;;;;;27.56;43.02;98645.91;4499807;31;35854;-73
2022/08/19 02:03:13;;;;;;;9.73;6.05;;;;;;;27.20;43.79;98645.59;4499738;31;35192;-73
2022/08/19 02:05:42;;;;;;;8.13;5.35;;;;;;;27.28;43.72;98642.25;4499298;31;33474;-72
2022/08/19 02:08:10;;;;;;;8.93;5.45;;;;;;;27.27;43.77;98651.25;4501143;31;33801;-78
2022/08/19 02:10:41;;;;;;;12.15;5.85;;;;;;;27.40;43.48;98646.47;4500301;31;35759;-79
2022/08/19 02:13:11;;;;;;;7.22;5.28;;;;;;;27.28;43.75;98647.59;4499358;31;35260;-85
2022/08/19 02:15:39;;;;;;;9.55;5.62;;;;;;;27.21;43.88;98649.94;4495384;31;34412;-73
2022/08/19 02:18:08;;;;;;;7.95;5.43;;;;;;;27.43;43.42;98657.72;4501119;31;33745;-73
2022/08/19 02:20:37;;;;;;;7.43;4.95;;;;;;;27.32;43.78;98643.66;4498865;31;35184;-81
2022/08/19 02:23:06;;;;;;;8.70;5.82;;;;;;;27.26;43.92;98638.84;4502216;31;35240;-73
2022/08/19 02:25:44;;;;;;;8.75;5.68;;;;;;;27.19;44.13;98628.69;4499440;31;31304;-76
2022/08/19 02:28:12;;;;;;;9.35;5.93;;;;;;;27.26;44.03;98625.47;4501124;31;33158;-74
2022/08/19 02:30:46;;;;;;;11.93;6.10;;;;;;;27.23;44.04;98634.59;4494497;31;35735;-73
2022/08/19 02:33:15;;;;;;;8.35;6.12;;;;;;;27.20;44.16;98634.91;4499348;31;34602;-73
2022/08/19 02:35:44;;;;;;;9.38;5.53;;;;;;;26.73;45.30;98640.03;4501359;31;33676;-75
2022/08/19 02:38:25;;;;;;;9.10;5.70;;;;;;;26.96;44.77;98644.16;4500986;31;33335;-73
2022/08/19 02:41:00;;;;;;;7.57;5.82;;;;;;;27.18;44.62;98640.38;4499462;31;35139;-73
2022/08/19 02:43:29;;;;;;;9.20;5.97;;;;;;;27.26;44.07;98645.03;4502201;31;35149;-73
2022/08/19 02:46:02;;;;;;;12.43;6.45;;;;;;;27.01;44.60;98647.25;4498075;31;33194;-72
2022/08/19 02:48:32;;;;;;;9.05;5.68;;;;;;;26.93;44.93;98652.47;4499742;31;34909;-73
2022/08/19 02:51:01;;;;;;;8.85;5.93;;;;;;;26.64;45.43;98655.88;4501174;31;35334;-73
2022/08/19 02:53:29;;;;;;;8.50;5.80;;;;;;;27.36;44.10;98661.94;4502259;31;35206;-73
2022/08/19 02:55:57;;;;;;;10.57;5.82;;;;;;;26.82;44.99;98658.72;4501136;31;34273;-73
2022/08/19 02:58:26;;;;;;;7.47;5.12;;;;;;;26.99;44.47;98657.22;4501861;31;33938;-73
2022/08/19 03:00:55;;;;;;;8.10;5.40;;;;;;;26.94;44.58;98659.47;4500915;31;35056;-72
2022/08/19 03:03:23;;;;;;;9.45;5.93;;;;;;;27.28;44.00;98655.62;4499361;31;35072;-73
2022/08/19 03:05:52;;;;;;;13.52;5.93;;;;;;;26.89;44.45;98653.69;4497938;31;33887;-73
2022/08/19 03:08:25;;;;;;;8.93;5.62;;;;;;;27.21;43.87;98663.31;4502152;31;34844;-73
2022/08/19 03:10:53;;;;;;;9.88;5.90;;;;;;;26.86;44.79;98664.69;4500965;31;35939;-73
2022/08/19 03:13:23;;;;;;;10.10;5.43;;;;;;;27.04;44.59;98672.88;4501900;31;34542;-73
2022/08/19 03:15:51;;;;;;;9.85;5.30;;;;;;;26.93;44.46;98683.66;4499359;31;33409;-73
2022/08/19 03:18:19;;;;;;;10.50;6.45;;;;;;;26.82;44.80;98673.94;4499677;31;33984;-84
2022/08/19 03:20:53;;;;;;;8.73;5.45;;;;;;;26.72;45.09;98678.38;4499631;31;35993;-73
2022/08/19 03:23:22;;;;;;;8.38;5.28;;;;;;;26.58;45.19;98683.09;4496450;31;34479;-81
2022/08/19 03:25:53;;;;;;;9.02;5.87;;;;;;;27.00;44.57;98680.31;4500472;31;33530;-85
2022/08/19 03:28:42;;;;;;;10.98;5.82;;;;;;;26.98;44.77;98681.41;4493745;31;34704;-71
2022/08/19 03:31:21;;;;;;;9.88;6.03;;;;;;;26.38;46.08;98681.31;4499456;31;35150;-71
2022/08/19 03:34:12;;;;;;;8.45;5.53;;;;;;;26.68;45.37;98693.84;4492927;31;34586;-73
2022/08/19 03:36:40;;;;;;;10.68;5.68;;;;;;;26.70;45.29;98686.53;4494257;31;32524;-72
2022/08/19 03:39:09;;;;;;;9.45;5.50;;;;;;;26.72;45.18;98676.59;4490709;31;33937;-73
2022/08/19 03:41:41;;;;;;;8.73;5.95;;;;;;;26.71;45.31;98688.22;4494091;31;35990;-84
2022/08/19 03:44:14;;;;;;;8.10;5.12;;;;;;;26.62;45.63;98695.22;4492128;31;34317;-72
2022/08/19 03:46:47;;;;;;;7.40;5.43;;;;;;;26.71;45.43;98701.59;4493202;31;33300;-77
2022/08/19 03:49:16;;;;;;;8.38;5.12;;;;;;;26.91;45.11;98705.16;4493358;31;33208;-73
2022/08/19 03:51:47;;;;;;;11.50;5.93;;;;;;;26.72;45.46;98713.09;4491010;31;35966;-82
2022/08/19 03:54:17;;;;;;;11.05;5.80;;;;;;;26.75;45.44;98704.84;4498775;31;36284;-73
2022/08/19 03:56:48;;;;;;;12.60;6.47;;;;;;;26.44;46.24;98696.81;4494167;31;33593;-74
2022/08/19 03:59:20;;;;;;;9.57;6.45;;;;;;;26.67;45.62;98703.69;4501014;31;34692;-83
2022/08/19 04:01:48;;;;;;;9.75;6.18;;;;;;;26.20;46.72;98700.59;4498112;31;35943;-77
2022/08/19 04:04:16;;;;;;;8.30;6.00;;;;;;;26.43;46.32;98708.47;4500721;31;32992;-84
2022/08/19 04:06:46;;;;;;;7.75;5.40;;;;;;;26.45;46.62;98710.03;4499250;31;33238;-73
2022/08/19 04:09:16;;;;;;;10.35;5.32;;;;;;;26.56;46.15;98717.09;4500887;31;33784;-84
2022/08/19 04:11:47;;;;;;;9.18;5.45;;;;;;;26.47;46.33;98713.41;4493218;31;33946;-85
2022/08/19 04:14:19;;;;;;;10.35;6.43;;;;;;;26.81;45.54;98715.00;4498987;31;35298;-77
2022/08/19 04:16:57;;;;;;;8.20;5.62;;;;;;;26.82;45.52;98716.66;4483186;31;32395;-85
2022/08/19 04:19:26;;;;;;;9.02;5.62;;;;;;;26.81;45.44;98723.00;4492877;31;33898;-79
2022/08/19 04:21:55;;;;;;;8.60;5.80;;;;;;;26.27;46.64;98717.78;4493644;31;35048;-79
2022/08/19 04:24:24;;;;;;;10.15;5.80;;;;;;;26.81;45.75;98715.00;4482524;31;34921;-76
2022/08/19 04:26:53;;;;;;;12.73;5.97;;;;;;;26.39;46.46;98718.56;4498065;31;33866;-86
2022/08/19 04:29:24;;;;;;;9.77;6.53;;;;;;;26.73;45.83;98718.31;4482929;32;33001;-85
2022/08/19 04:31:55;;;;;;;9.20;5.72;;;;;;;26.67;45.96;98717.03;4496924;31;35242;-87
2022/08/19 04:34:25;;;;;;;9.90;5.72;;;;;;;27.01;44.95;98724.75;4500896;31;33668;-85
2022/08/19 04:36:56;;;;;;;10.73;5.37;;;;;;;27.00;45.02;98719.53;4486241;31;32204;-86
2022/08/19 04:42:38;;;;;;;8.70;5.68;;;;;;;26.95;45.27;98714.63;4499409;31;33266;-85
2022/08/19 04:45:06;;;;;;;10.65;5.50;;;;;;;26.67;45.89;98724.22;4499362;31;34300;-74
2022/08/19 04:47:37;;;;;;;9.13;5.65;;;;;;;27.14;44.81;98720.97;4499416;31;32182;-86
2022/08/19 04:50:27;;;;;;;9.15;5.45;;;;;;;27.21;44.83;98719.44;4487771;31;33135;-75
2022/08/19 04:52:55;;;;;;;8.52;6.07;;;;;;;27.21;44.72;98724.78;4484485;31;33527;-76
2022/08/19 04:55:25;;;;;;;11.23;6.20;;;;;;;27.05;45.10;98734.19;4499944;31;35181;-85
2022/08/19 04:57:54;;;;;;;8.45;5.47;;;;;;;27.15;44.86;98722.69;4502175;31;33473;-73
2022/08/19 05:00:23;;;;;;;10.70;5.68;;;;;;;27.49;44.45;98741.06;4501655;31;33823;-81
2022/08/19 05:02:51;;;;;;;7.60;5.78;;;;;;;27.12;45.07;98736.31;4500143;31;34921;-85
2022/08/19 05:05:20;;;;;;;7.93;5.37;;;;;;;27.39;44.44;98736.53;4501749;31;34446;-75
2022/08/19 05:07:48;;;;;;;8.05;5.87;;;;;;;27.21;44.86;98728.31;4502769;31;34252;-82
2022/08/19 05:10:16;;;;;;;11.98;5.68;;;;;;;27.61;44.02;98731.91;4497190;31;33840;-78
2022/08/19 05:12:44;;;;;;;10.25;6.05;;;;;;;27.69;43.62;98734.75;4484756;32;34873;-85
2022/08/19 05:15:12;;;;;;;9.93;5.75;;;;;;;27.76;43.77;98732.31;4485183;32;34798;-75
2022/08/19 05:22:31;;;;;;;9.30;5.95;;;;;;;27.45;44.19;98729.78;4501478;31;32243;-73
2022/08/19 05:23:15;;;;;;;9.23;6.25;;;;;;;27.85;43.19;98738.66;4501306;31;35055;-74
2022/08/19 05:25:51;;;;;;;8.43;5.62;;;;;;;27.92;43.57;98743.34;4501134;31;34543;-73
2022/08/19 05:28:20;;;;;;;8.98;5.47;;;;;;;28.21;43.06;98739.78;4501387;31;33360;-73
2022/08/19 05:30:48;;;;;;;7.82;5.68;;;;;;;28.36;42.61;98745.53;4501797;31;33539;-73
2022/08/19 05:33:17;;;;;;;8.30;5.68;;;;;;;28.52;42.56;98743.09;4501173;31;34291;-73
2022/08/19 05:35:45;;;;;;;8.80;6.47;;;;;;;28.62;42.18;98745.75;4500750;31;35198;-73
2022/08/19 05:38:13;;;;;;;9.65;5.97;;;;;;;28.77;41.61;98738.09;4502422;31;33655;-82
2022/08/19 05:40:45;;;;;;;9.75;6.22;;;;;;;28.83;41.54;98740.19;4500248;31;33159;-73
2022/08/19 05:43:15;;;;;;;8.27;5.87;;;;;;;28.60;42.05;98747.75;4501188;31;34961;-73
2022/08/19 05:45:44;;;;;;;12.25;5.40;;;;;;;29.16;41.49;98748.66;4499825;31;33592;-73
2022/08/19 05:48:12;;;;;;;11.63;6.22;;;;;;;28.80;42.12;98745.88;4501375;31;34314;-73
2022/08/19 05:50:41;;;;;;;11.38;5.20;;;;;;;28.31;42.96;98742.47;4487266;31;33889;-73
2022/08/19 05:53:09;;;;;;;7.70;5.60;;;;;;;28.49;42.66;98738.03;4502321;31;35038;-78
2022/08/19 05:55:38;;;;;;;9.27;6.03;;;;;;;28.75;41.85;98740.09;4500390;31;34435;-78
2022/08/19 05:58:09;;;;;;;11.12;5.72;;;;;;;28.54;42.33;98740.31;4478871;32;243807;-73
2022/08/19 06:00:37;;;;;;;10.10;5.40;;;;;;;28.88;41.66;98737.06;4495998;31;34374;-83
2022/08/19 06:03:06;;;;;;;12.85;5.50;;;;;;;28.99;41.58;98742.22;4500497;31;35136;-73
2022/08/19 06:05:40;;;;;;;7.05;4.95;;;;;;;29.79;39.88;98729.06;4501728;31;35198;-78
2022/08/19 06:08:19;;;;;;;7.53;5.30;;;;;;;29.54;40.32;98738.66;4486375;31;33723;-75
2022/08/19 06:11:23;;;;;;;9.10;5.57;;;;;;;29.65;39.92;98732.25;4486978;31;33846;-77
2022/08/19 06:13:53;;;;;;;9.45;5.70;;;;;;;29.70;39.67;98729.94;4501407;31;34914;-84
2022/08/19 06:16:27;;;;;;;;;;;;;;;30.22;38.74;98723.84;4500387;31;35225;-72
2022/08/19 06:18:59;;;;;;;11.48;5.70;;;;;;;29.93;39.79;98730.34;4502295;31;32984;-72
2022/08/19 06:21:28;;;;;;;8.70;5.55;;;;;;;30.15;38.69;98734.38;4499557;31;34042;-73
2022/08/19 06:23:57;;;;;;;8.80;5.18;;;;;;;29.94;39.83;98728.50;4500852;31;35607;-75
2022/08/19 06:26:27;;;;;;;8.02;5.68;;;;;;;30.42;38.13;98729.88;4498135;31;34516;-84
2022/08/19 06:28:55;;;;;;;11.30;5.72;;;;;;;30.38;38.67;98723.97;4501461;31;34453;-74
2022/08/19 06:31:26;;;;;;;7.35;4.93;;;;;;;30.74;37.69;98723.84;4499312;31;32452;-71
2022/08/19 06:33:54;;;;;;;7.95;5.28;;;;;;;31.01;36.60;98713.91;4500872;31;35112;-73
2022/08/19 06:36:33;;;;;;;10.20;5.53;;;;;;;30.69;37.83;98714.56;4501516;31;34501;-72
2022/08/19 06:39:05;;;;;;;10.27;5.53;;;;;;;30.51;37.27;98711.97;4500895;31;33452;-83
2022/08/19 06:41:38;;;;;;;7.47;5.22;;;;;;;30.61;37.64;98712.69;4500902;31;33766;-72
2022/08/19 06:44:19;;;;;;;6.53;4.55;;;;;;;31.46;35.96;98707.28;4500913;31;36185;-78
2022/08/19 06:46:48;;;;;;;8.80;5.15;;;;;;;31.42;35.96;98714.00;4497871;31;34323;-73
2022/08/19 06:49:22;;;;;;;8.60;4.82;;;;;;;31.11;37.02;98717.28;4488386;31;33525;-73
2022/08/19 06:51:51;;;;;;;7.40;5.47;;;;;;;31.29;36.22;98729.75;4499237;31;32852;-72
2022/08/19 06:54:19;;;;;;;8.90;4.65;;;;;;;31.68;35.65;98726.50;4501801;31;35961;-84
2022/08/19 06:56:47;;;;;;;6.95;4.65;;;;;;;32.29;34.87;98743.19;4499524;31;34123;-72
2022/08/19 06:59:19;;;;;;;13.02;5.47;;;;;;;31.89;35.19;98751.09;4499876;31;33517;-72
2022/08/19 07:01:50;;;;;;;7.20;5.05;;;;;;;32.15;34.71;98754.66;4499202;31;34710;-73
2022/08/19 07:04:20;;;;;;;9.20;4.90;;;;;;;31.49;35.62;98754.59;4499166;31;34994;-73
2022/08/19 07:06:49;;;;;;;10.00;5.45;;;;;;;31.16;36.14;98757.13;4499066;31;33573;-72
2022/08/19 07:09:22;;;;;;;7.50;4.95;;;;;;;31.39;36.87;98752.00;4488261;31;33707;-84
2022/08/19 07:11:52;;;;;;;8.70;5.03;;;;;;;31.67;36.00;98757.13;4496196;31;33907;-84
2022/08/19 07:14:26;;;;;;;7.85;4.57;;;;;;;32.36;34.71;98767.59;4471988;32;34621;-71
2022/08/19 07:16:56;;;;;;;5.47;4.20;;;;;;;32.62;34.05;98762.03;4490507;31;35246;-73
2022/08/19 07:19:28;;;;;;;8.10;4.95;;;;;;;32.26;34.40;98771.31;4498948;31;34413;-73
2022/08/19 07:21:59;;;;;;;7.60;4.60;;;;;;;32.97;33.89;98766.13;4498764;31;33875;-72
2022/08/19 07:24:27;;;;;;;8.23;4.82;;;;;;;33.15;33.44;98774.00;4500574;31;35083;-72
2022/08/19 07:27:03;;;;;;;7.32;4.40;;;;;;;33.22;32.49;98760.66;4483826;31;34463;-76
2022/08/19 07:29:37;;;;;;;7.15;4.65;;;;;;;33.36;32.10;98759.91;4486888;31;33443;-72
2022/08/19 07:32:06;;;;;;;11.10;5.40;;;;;;;33.34;32.93;98756.53;4498744;31;34755;-73
2022/08/19 07:34:39;;;;;;;6.12;4.47;;;;;;;33.85;33.09;98757.91;4499471;31;35987;-73
2022/08/19 07:37:09;;;;;;;7.55;4.90;;;;;;;33.95;31.53;98758.50;4500872;31;34378;-73
2022/08/19 07:39:38;;;;;;;7.47;4.93;;;;;;;35.06;30.62;98750.66;4501788;31;33477;-73
2022/08/19 07:42:09;;;;;;;9.32;5.22;;;;;;;34.80;30.60;98751.16;4492555;31;33903;-84
2022/08/19 07:44:40;;;;;;;8.25;4.70;;;;;;;35.43;29.90;98748.84;4484216;31;35043;-72
2022/08/19 07:47:17;;;;;;;9.20;4.72;;;;;;;34.35;31.09;98753.81;4483425;32;34530;-72
2022/08/19 07:50:08;;;;;;;9.30;4.50;;;;;;;35.12;30.45;98747.19;4494264;31;33617;-73
2022/08/19 07:52:39;;;;;;;9.52;4.62;;;;;;;35.53;29.78;98756.63;4474933;31;33887;-81
2022/08/19 07:55:09;;;;;;;10.05;5.47;;;;;;;35.37;29.93;98752.31;4484465;32;35899;-83
2022/08/19 07:57:57;;;;;;;9.85;5.15;;;;;;;35.65;28.55;98764.09;4495571;31;35263;-77
2022/08/19 08:00:26;;;;;;;7.35;4.65;;;;;;;35.00;29.67;98767.63;4501421;31;33540;-82
2022/08/19 08:02:54;;;;;;;9.73;5.10;;;;;;;35.83;28.37;98762.84;4498490;31;33889;-75
2022/08/19 08:11:00;;;;;;;7.60;4.72;;;;;;;35.62;29.47;98763.63;4499451;31;33662;-82
2022/08/19 08:13:28;;;;;;;6.55;4.18;;;;;;;35.23;29.08;98757.56;4483958;31;33922;-72
2022/08/19 08:15:57;;;;;;;12.25;4.62;;;;;;;36.37;27.97;98759.53;4484427;32;35894;-73
2022/08/19 08:18:25;;;;;;;11.88;4.20;;;;;;;35.27;28.96;98761.56;4500207;31;34376;-73
2022/08/19 08:20:56;;;;;;;8.85;4.53;;;;;;;36.20;28.27;98760.91;4499458;31;32763;-73
2022/08/19 08:23:25;;;;;;;7.10;4.30;;;;;;;36.73;27.00;98758.56;4500499;31;33560;-83
2022/08/19 08:25:56;;;;;;;9.68;4.60;;;;;;;36.04;27.40;98753.84;4498769;31;35875;-72
2022/08/19 08:28:27;;;;;;;7.35;4.50;;;;;;;36.27;27.17;98753.66;4500310;31;34463;-72
2022/08/19 08:30:57;;;;;;;8.00;4.87;;;;;;;36.37;27.26;98748.69;4486288;31;33306;-73
2022/08/19 08:33:27;;;;;;;10.40;4.82;;;;;;;36.73;26.31;98749.59;4500318;31;34655;-73
2022/08/19 08:36:04;;;;;;;7.68;4.40;;;;;;;36.33;26.07;98747.44;4501357;31;35055;-72
2022/08/19 08:38:34;;;;;;;7.18;4.12;;;;;;;36.77;26.43;98740.84;4500226;31;34409;-73
2022/08/19 08:41:27;;;;;;;8.10;4.05;;;;;;;36.98;25.42;98728.22;4498809;31;33451;-72
2022/08/19 08:43:56;;;;;;;6.22;4.03;;;;;;;37.84;24.48;98730.38;4496854;31;33872;-73
2022/08/19 08:46:34;;;;;;;6.07;4.10;;;;;;;37.99;23.28;98738.31;4484893;31;35124;-73
2022/08/19 08:49:30;;;;;;;8.57;4.78;;;;;;;37.52;24.75;98750.97;4501226;31;34553;-72
2022/08/19 08:52:22;;;;;;;7.30;4.00;;;;;;;38.10;23.09;98743.19;4497140;31;33537;-81
2022/08/19 08:54:54;;;;;;;8.15;4.22;;;;;;;38.42;22.67;98742.50;4493942;31;34017;-74
2022/08/19 08:57:35;;;;;;;5.55;3.60;;;;;;;37.97;24.00;98736.88;4499185;31;35741;-73
2022/08/19 09:00:13;;;;;;;5.62;3.72;;;;;;;38.58;22.49;98733.94;4501169;31;34627;-73
2022/08/19 09:02:43;;;;;;;5.93;3.53;;;;;;;38.86;22.28;98730.06;4498207;31;33592;-73
2022/08/19 09:05:19;;;;;;;;;;;;;;;38.15;22.88;98738.97;4495320;31;33290;-85
2022/08/19 09:08:01;;;;;;;5.60;4.10;;;;;;;38.63;22.38;98725.97;4499839;31;35615;-86
2022/08/19 09:10:44;;;;;;;6.55;3.97;;;;;;;38.78;21.93;98727.59;4500204;31;34685;-80
2022/08/19 09:13:31;;;;;;;6.60;4.47;;;;;;;38.70;22.31;98728.66;4486408;31;32721;-80
2022/08/19 09:16:12;;;;;;;8.57;4.62;;;;;;;38.80;22.63;98720.87;4484826;31;33863;-85
2022/08/19 09:18:46;;;;;;;7.10;4.05;;;;;;;38.93;22.34;98735.50;4484545;32;35041;-74
2022/08/19 09:21:15;;;;;;;7.82;5.12;;;;;;;38.57;22.13;98715.94;4483345;32;34530;-73
2022/08/19 09:23:43;;;;;;;5.80;4.05;;;;;;;39.19;22.59;98707.34;4499869;31;33071;-72
2022/08/19 09:26:15;;;;;;;5.93;3.85;;;;;;;39.21;20.81;98721.56;4498986;31;34041;-80
2022/08/19 09:28:45;;;;;;;6.65;4.22;;;;;;;39.21;21.17;98711.50;4497774;31;33026;-75
2022/08/19 09:31:21;;;;;;;7.12;3.83;;;;;;;38.98;21.76;98712.00;4499076;31;34496;-81
2022/08/19 09:33:50;;;;;;;5.20;3.60;;;;;;;38.52;22.25;98717.59;4483464;31;32935;-73
2022/08/19 09:36:22;;;;;;;6.30;3.67;;;;;;;38.48;21.63;98712.56;4483635;32;34820;-74
2022/08/19 09:39:05;;;;;;;6.90;4.32;;;;;;;38.60;22.00;98711.94;4483413;32;36083;-74
2022/08/19 09:41:42;;;;;;;6.78;4.05;;;;;;;39.09;22.18;98712.41;4493610;31;35301;-73
2022/08/19 09:44:15;;;;;;;5.47;3.92;;;;;;;38.83;21.26;98712.28;4501471;31;33237;-73
2022/08/19 09:46:46;;;;;;;8.80;3.75;;;;;;;39.24;21.26;98707.53;4501647;31;34711;-73
2022/08/19 09:49:16;;;;;;;6.05;4.25;;;;;;;39.25;21.39;98701.00;4501494;31;35727;-73
2022/08/19 09:51:47;;;;;;;6.68;3.97;;;;;;;39.73;20.83;98686.91;4500481;31;34478;-73
2022/08/19 09:54:18;;;;;;;6.45;3.55;;;;;;;39.07;22.10;98690.84;4500505;31;32948;-77
2022/08/19 09:56:52;;;;;;;6.40;4.00;;;;;;;38.97;21.67;98688.59;4501668;31;33902;-73
2022/08/19 09:59:21;;;;;;;6.03;4.15;;;;;;;38.71;22.55;98694.12;4501255;31;34989;-73
2022/08/19 10:01:49;;;;;;;5.93;4.03;;;;;;;39.43;22.19;98692.13;4500483;31;34414;-73
2022/08/19 10:04:18;;;;;;;8.95;4.30;;;;;;;39.59;21.61;98696.25;4500970;31;32813;-71
2022/08/19 10:06:50;;;;;;;6.50;4.30;;;;;;;39.59;21.33;98674.44;4500590;31;34603;-73
2022/08/19 10:09:20;;;;;;;8.57;4.75;;;;;;;40.75;20.94;98682.97;4495115;31;35134;-72
2022/08/19 10:12:02;;;;;;;7.20;4.12;;;;;;;40.24;21.69;98684.16;4488385;31;35288;-73
2022/08/19 10:14:33;;;;;;;7.37;4.20;;;;;;;39.46;21.42;98688.13;4500392;31;34216;-73
2022/08/19 10:17:02;;;;;;;10.93;4.53;;;;;;;39.98;21.13;98683.37;4499833;31;34791;-73
2022/08/19 10:19:45;;;;;;;11.70;4.45;;;;;;;39.28;22.05;98672.53;4485516;32;35191;-73
2022/08/19 10:22:23;;;;;;;8.23;3.90;;;;;;;39.70;21.76;98681.87;4489947;31;34405;-74
2022/08/19 10:24:53;;;;;;;6.78;4.32;;;;;;;39.96;21.20;98675.41;4499925;31;33556;-73
2022/08/19 10:27:21;;;;;;;6.93;4.50;;;;;;;39.67;21.05;98674.16;4501487;31;33931;-74
2022/08/19 10:29:49;;;;;;;6.32;4.53;;;;;;;39.90;21.02;98670.81;4496191;31;34324;-85
2022/08/19 10:32:18;;;;;;;7.07;3.97;;;;;;;40.38;20.60;98677.53;4485204;32;34370;-84
2022/08/19 10:35:02;;;;;;;7.57;4.10;;;;;;;40.58;20.12;98676.50;4500203;31;34138;-81
2022/08/19 10:37:37;;;;;;;6.72;4.90;;;;;;;40.35;20.81;98680.69;4502010;31;34047;-83
2022/08/19 10:40:23;;;;;;;5.40;4.07;;;;;;;40.56;19.93;98680.28;4490648;31;35089;-85
2022/08/19 10:42:53;;;;;;;10.20;4.50;;;;;;;40.98;19.58;98681.47;4486064;32;34408;-79
2022/08/19 10:45:23;;;;;;;6.93;4.30;;;;;;;40.80;19.11;98677.72;4484854;32;34493;-73
2022/08/19 10:47:52;;;;;;;6.72;4.37;;;;;;;40.77;20.20;98669.13;4491747;31;34105;-76
2022/08/19 10:53:08;;;;;;;6.37;4.03;;;;;;;41.30;18.83;98674.75;4499424;31;34007;-77
2022/08/19 10:58:41;;;;;;;6.90;4.40;;;;;;;40.52;19.35;98678.22;4462782;32;33656;-75
2022/08/19 11:01:09;;;;;;;6.80;4.78;;;;;;;40.32;20.23;98668.34;4484102;31;34732;-73
2022/08/19 11:03:37;;;;;;;8.93;4.65;;;;;;;40.91;19.29;98673.38;4495954;31;34525;-81
2022/08/19 11:06:32;;;;;;;7.53;4.93;;;;;;;40.66;19.09;98674.28;4478307;32;33119;-73
2022/08/19 11:09:00;;;;;;;8.68;5.22;;;;;;;40.46;19.36;98671.78;4491060;31;34566;-75
2022/08/19 11:11:28;;;;;;;10.88;5.30;;;;;;;41.17;18.57;98674.06;4486011;32;34996;-73
2022/08/19 11:13:56;;;;;;;8.27;5.43;;;;;;;41.36;18.15;98675.72;4483857;31;35040;-72
2022/08/19 11:16:27;;;;;;;7.25;4.95;;;;;;;41.52;18.60;98682.41;4485801;32;33457;-73
2022/08/19 11:18:58;;;;;;;8.50;6.87;;;;;;;41.29;18.21;98678.53;4489851;31;34596;-73
2022/08/19 11:21:35;;;;;;;13.40;7.85;;;;;;;41.24;19.33;98678.41;4484817;32;35073;-73
2022/08/19 11:24:06;;;;;;;10.73;8.45;;;;;;;41.62;18.02;98688.16;4498934;31;34415;-75
2022/08/19 11:26:36;;;;;;;11.70;9.70;;;;;;;41.01;18.43;98686.47;4500500;31;33588;-73
2022/08/19 11:29:05;;;;;;;12.90;8.48;;;;;;;41.44;18.08;98686.31;4500803;31;34713;-75
2022/08/19 11:31:35;;;;;;;12.18;9.70;;;;;;;41.59;18.81;98682.31;4500446;31;35928;-79
2022/08/19 11:34:06;;;;;;;10.85;9.23;;;;;;;42.08;17.86;98684.94;4498141;31;33930;-83
2022/08/19 11:36:38;;;;;;;14.25;10.50;;;;;;;41.59;18.87;98677.66;4500305;31;33838;-76
2022/08/19 11:39:08;;;;;;;13.15;10.55;;;;;;;41.56;18.88;98672.66;4498940;31;33160;-74
2022/08/19 11:41:36;;;;;;;12.70;11.02;;;;;;;42.12;18.01;98675.16;4500190;31;36090;-78
2022/08/19 11:44:04;;;;;;;14.00;11.32;;;;;;;41.72;18.20;98673.09;4499581;31;34573;-74
2022/08/19 11:46:32;;;;;;;13.23;10.32;;;;;;;41.92;18.15;98679.06;4500444;31;34285;-72
2022/08/19 11:49:01;;;;;;;16.23;10.00;;;;;;;41.53;18.73;98675.03;4500899;31;33955;-72
2022/08/19 11:51:30;;;;;;;14.32;9.88;;;;;;;41.39;18.46;98666.25;4499268;31;35019;-73
2022/08/19 11:53:59;;;;;;;13.73;9.48;;;;;;;40.37;19.59;98659.50;4500794;31;34417;-72
2022/08/19 11:56:27;;;;;;;14.95;10.13;;;;;;;40.71;19.22;98658.03;4487442;31;33036;-75
2022/08/19 11:58:58;;;;;;;12.77;9.93;;;;;;;40.58;19.01;98660.13;4500653;31;34757;-74
2022/08/19 12:01:27;;;;;;;14.00;11.23;;;;;;;39.85;19.80;98661.63;4501781;31;35814;-74
2022/08/19 12:03:57;;;;;;;15.05;11.18;;;;;;;40.30;19.87;98665.00;4500445;31;34480;-75
2022/08/19 12:06:29;;;;;;;16.85;12.18;;;;;;;39.29;21.58;98655.97;4498642;31;33449;-75
2022/08/19 12:08:59;;;;;;;18.60;13.10;;;;;;;40.05;20.60;98665.06;4499683;31;34684;-74